createdAt,value
2019-01-25T00:01:53.435Z,26.27
2019-01-25T00:04:23.962Z,29.73
2019-01-25T00:06:54.531Z,28.73
2019-01-25T00:09:25.090Z,27.50
2019-01-25T00:11:55.510Z,26.10
2019-01-25T00:14:26.064Z,25.67
2019-01-25T00:16:56.540Z,28.63
2019-01-25T00:19:27.056Z,27.23
2019-01-25T00:21:57.558Z,28.30
2019-01-25T00:24:28.070Z,27.10
2019-01-25T00:26:58.581Z,30.03
2019-01-25T00:29:29.089Z,28.57
2019-01-25T00:31:59.557Z,29.80
2019-01-25T00:34:30.078Z,28.13
2019-01-25T00:37:00.592Z,29.30
2019-01-25T00:39:31.062Z,32.97
2019-01-25T00:42:01.594Z,32.23
2019-01-25T00:44:32.067Z,33.07
2019-01-25T00:47:02.560Z,28.53
2019-01-25T00:49:33.246Z,29.33
2019-01-25T00:52:03.814Z,26.90
2019-01-25T00:54:34.324Z,27.67
2019-01-25T00:57:05.186Z,29.07
2019-01-25T00:59:35.647Z,30.63
2019-01-25T01:02:06.309Z,31.43
2019-01-25T01:04:36.938Z,31.67
2019-01-25T01:07:07.539Z,30.60
2019-01-25T01:09:38.197Z,32.00
2019-01-25T01:12:08.802Z,32.57
2019-01-25T01:14:39.259Z,33.27
2019-01-25T01:17:09.727Z,26.87
2019-01-25T01:19:40.238Z,23.97
2019-01-25T01:22:10.809Z,26.07
2019-01-25T01:24:41.278Z,26.37
2019-01-25T01:27:11.773Z,25.63
2019-01-25T01:29:42.235Z,27.23
2019-01-25T01:32:12.835Z,27.87
2019-01-25T01:34:43.328Z,26.63
2019-01-25T01:37:13.890Z,27.07
2019-01-25T01:39:44.378Z,27.93
2019-01-25T01:42:14.846Z,25.17
2019-01-25T01:44:45.338Z,25.57
2019-01-25T01:47:17.380Z,24.73
2019-01-25T01:49:47.980Z,26.17
2019-01-25T01:52:18.473Z,27.57
2019-01-25T01:54:48.919Z,27.03
2019-01-25T01:57:19.434Z,27.07
2019-01-25T01:59:49.893Z,28.43
2019-01-25T02:02:20.353Z,27.60
2019-01-25T02:04:50.861Z,33.27
2019-01-25T02:07:21.391Z,32.30
2019-01-25T02:09:51.891Z,33.93
2019-01-25T02:12:22.445Z,35.43
2019-01-25T02:14:52.903Z,32.07
2019-01-25T02:17:23.367Z,27.80
2019-01-25T02:19:53.860Z,26.97
2019-01-25T02:22:24.366Z,24.40
2019-01-25T02:24:54.825Z,24.47
2019-01-25T02:27:25.342Z,23.63
2019-01-25T02:29:55.811Z,23.20
2019-01-25T02:32:26.315Z,23.83
2019-01-25T02:34:56.813Z,25.10
2019-01-25T02:37:27.364Z,28.20
2019-01-25T02:39:57.870Z,26.27
2019-01-25T02:42:28.333Z,23.17
2019-01-25T02:44:58.825Z,22.80
2019-01-25T02:47:29.345Z,22.83
2019-01-25T02:49:59.857Z,23.03
2019-01-25T02:52:30.325Z,24.10
2019-01-25T02:55:00.784Z,23.80
2019-01-25T02:57:31.285Z,25.30
2019-01-25T03:00:01.813Z,23.40
2019-01-25T03:02:32.274Z,25.33
2019-01-25T03:05:02.728Z,28.60
2019-01-25T03:07:33.209Z,26.73
2019-01-25T03:10:04.441Z,23.07
2019-01-25T03:12:34.984Z,21.53
2019-01-25T03:15:07.028Z,19.37
2019-01-25T03:17:37.554Z,19.67
2019-01-25T03:20:08.410Z,19.97
2019-01-25T03:22:39.065Z,21.10
2019-01-25T03:25:11.488Z,21.43
2019-01-25T03:27:41.947Z,22.00
2019-01-25T03:30:14.227Z,20.77
2019-01-25T03:32:44.703Z,20.30
2019-01-25T03:35:16.171Z,18.33
2019-01-25T03:37:46.880Z,19.20
2019-01-25T03:40:19.783Z,20.83
2019-01-25T03:42:50.385Z,22.17
2019-01-25T03:45:21.293Z,17.00
2019-01-25T03:47:52.031Z,16.27
2019-01-25T03:50:25.326Z,15.67
2019-01-25T03:52:55.879Z,13.90
2019-01-25T03:55:26.705Z,14.80
2019-01-25T03:57:57.277Z,13.83
2019-01-25T04:00:29.443Z,13.83
2019-01-25T04:03:00.148Z,13.63
2019-01-25T04:05:30.765Z,12.73
2019-01-25T04:08:01.228Z,12.70
2019-01-25T04:10:31.836Z,12.37
2019-01-25T04:13:02.293Z,16.60
2019-01-25T04:15:34.285Z,18.93
2019-01-25T04:18:05.163Z,19.00
2019-01-25T04:20:35.765Z,17.97
2019-01-25T04:23:06.332Z,16.97
2019-01-25T04:25:36.879Z,15.87
2019-01-25T04:28:07.753Z,17.20
2019-01-25T04:30:38.232Z,16.10
2019-01-25T04:33:08.724Z,14.33
2019-01-25T04:35:39.181Z,13.33
2019-01-25T04:38:09.726Z,13.57
2019-01-25T04:40:40.221Z,13.63
2019-01-25T04:43:10.672Z,13.47
2019-01-25T04:45:41.166Z,15.07
2019-01-25T04:48:15.454Z,15.83
2019-01-25T04:50:46.048Z,16.97
2019-01-25T04:53:16.540Z,20.70
2019-01-25T04:55:47.036Z,20.60
2019-01-25T04:58:20.845Z,20.97
2019-01-25T05:00:51.296Z,19.93
2019-01-25T05:03:21.811Z,18.13
2019-01-25T05:05:52.364Z,18.73
2019-01-25T05:08:23.410Z,20.97
2019-01-25T05:10:53.945Z,18.40
2019-01-25T05:13:24.400Z,18.53
2019-01-25T05:15:54.903Z,22.53
2019-01-25T05:18:25.395Z,20.47
2019-01-25T05:20:55.958Z,19.37
2019-01-25T05:23:26.417Z,22.43
2019-01-25T05:25:56.875Z,23.73
2019-01-25T05:28:27.342Z,25.83
2019-01-25T05:31:06.564Z,23.80
2019-01-25T05:33:37.024Z,17.30
2019-01-25T05:36:07.854Z,22.87
2019-01-25T05:38:39.825Z,18.73
2019-01-25T05:41:10.324Z,18.20
2019-01-25T05:43:42.164Z,15.30
2019-01-25T05:46:12.776Z,18.17
2019-01-25T05:48:43.281Z,18.93
2019-01-25T05:51:13.780Z,20.67
2019-01-25T05:53:55.020Z,21.50
2019-01-25T05:56:25.645Z,20.30
2019-01-25T05:58:56.111Z,20.40
2019-01-25T06:01:26.592Z,19.70
2019-01-25T06:03:57.173Z,23.90
2019-01-25T06:06:27.703Z,26.60
2019-01-25T06:08:58.216Z,20.47
2019-01-25T06:11:35.226Z,24.43
2019-01-25T06:14:01.316Z,23.83
2019-01-25T06:16:31.882Z,39.93
2019-01-25T06:19:02.386Z,36.37
2019-01-25T06:21:32.921Z,33.03
2019-01-25T06:24:03.444Z,32.83
2019-01-25T06:26:33.947Z,31.67
2019-01-25T06:29:04.505Z,28.20
2019-01-25T06:31:35.007Z,27.13
2019-01-25T06:34:05.648Z,31.93
2019-01-25T06:36:36.122Z,26.23
2019-01-25T06:39:09.250Z,25.00
2019-01-25T06:41:44.196Z,24.73
2019-01-25T06:44:12.030Z,24.40
2019-01-25T06:46:42.537Z,24.37
2019-01-25T06:49:13.004Z,26.70
2019-01-25T06:51:43.508Z,25.00
2019-01-25T06:54:14.008Z,23.17
2019-01-25T06:56:44.511Z,21.23
2019-01-25T06:59:21.152Z,23.53
2019-01-25T07:01:58.534Z,22.07
2019-01-25T07:04:29.063Z,23.67
2019-01-25T07:06:59.572Z,24.33
2019-01-25T07:09:30.085Z,22.30
2019-01-25T07:12:00.605Z,24.50
2019-01-25T07:14:31.075Z,22.87
2019-01-25T07:17:01.534Z,25.10
2019-01-25T07:19:32.056Z,26.73
2019-01-25T07:22:02.515Z,26.30
2019-01-25T07:24:32.972Z,25.83
2019-01-25T07:27:03.472Z,27.37
2019-01-25T07:29:34.021Z,27.63
2019-01-25T07:32:04.924Z,30.87
2019-01-25T07:34:35.381Z,35.73
2019-01-25T07:37:05.977Z,41.60
2019-01-25T07:39:36.546Z,34.40
2019-01-25T07:42:07.026Z,31.63
2019-01-25T07:44:37.545Z,30.90
2019-01-25T07:47:08.025Z,34.97
2019-01-25T07:49:38.701Z,27.13
2019-01-25T07:52:09.301Z,28.17
2019-01-25T07:54:39.799Z,32.53
2019-01-25T07:57:10.256Z,27.87
2019-01-25T07:59:40.894Z,28.77
2019-01-25T08:02:11.458Z,29.53
2019-01-25T08:04:42.068Z,27.30
2019-01-25T08:07:12.553Z,30.37
2019-01-25T08:09:43.078Z,30.33
2019-01-25T08:12:13.592Z,33.70
2019-01-25T08:14:44.050Z,33.73
2019-01-25T08:17:14.658Z,32.57
2019-01-25T08:19:45.159Z,37.83
2019-01-25T08:22:15.698Z,34.63
2019-01-25T08:24:46.162Z,34.90
2019-01-25T08:27:16.842Z,33.37
2019-01-25T08:29:47.361Z,38.33
2019-01-25T08:32:17.997Z,41.17
2019-01-25T08:34:48.493Z,41.37
2019-01-25T08:37:19.073Z,40.07
2019-01-25T08:39:49.572Z,36.60
2019-01-25T08:42:20.061Z,35.60
2019-01-25T08:44:50.544Z,33.57
2019-01-25T08:47:21.000Z,32.50
2019-01-25T08:49:57.830Z,34.23
2019-01-25T08:52:23.675Z,32.73
2019-01-25T08:54:54.205Z,30.40
2019-01-25T08:57:24.790Z,33.10
2019-01-25T08:59:55.215Z,34.47
2019-01-25T09:02:25.842Z,35.63
2019-01-25T09:04:56.286Z,33.37
2019-01-25T09:07:26.751Z,33.27
2019-01-25T09:09:57.264Z,34.93
2019-01-25T09:12:27.763Z,33.00
2019-01-25T09:14:58.233Z,32.17
2019-01-25T09:17:28.773Z,32.00
2019-01-25T09:19:59.274Z,31.40
2019-01-25T09:22:29.797Z,32.17
2019-01-25T09:25:00.278Z,30.70
2019-01-25T09:27:30.746Z,31.83
2019-01-25T09:30:01.243Z,32.50
2019-01-25T09:32:31.702Z,34.70
2019-01-25T09:35:02.308Z,36.13
2019-01-25T09:37:33.041Z,32.27
2019-01-25T09:40:04.183Z,38.00
2019-01-25T09:42:34.641Z,41.90
2019-01-25T09:45:06.033Z,35.13
2019-01-25T09:47:36.501Z,31.53
2019-01-25T09:50:08.505Z,33.63
2019-01-25T09:52:39.017Z,33.60
2019-01-25T09:55:12.414Z,32.10
2019-01-25T09:57:42.929Z,30.93
2019-01-25T10:00:49.648Z,31.50
2019-01-25T10:03:20.161Z,28.67
2019-01-25T10:05:50.921Z,29.47
2019-01-25T10:08:21.487Z,27.83
2019-01-25T10:10:51.957Z,29.80
2019-01-25T10:13:22.476Z,27.70
2019-01-25T10:15:53.197Z,29.90
2019-01-25T10:18:24.938Z,28.20
2019-01-25T10:20:55.551Z,27.63
2019-01-25T10:23:26.045Z,27.87
2019-01-25T10:25:56.548Z,25.77
2019-01-25T10:28:27.059Z,26.90
2019-01-25T10:30:57.585Z,25.00
2019-01-25T10:33:28.053Z,26.17
2019-01-25T10:35:58.621Z,25.30
2019-01-25T10:38:29.222Z,28.07
2019-01-25T10:40:59.685Z,25.03
2019-01-25T10:43:30.369Z,24.73
2019-01-25T10:46:00.993Z,23.50
2019-01-25T10:48:31.470Z,21.27
2019-01-25T10:51:02.045Z,20.77
2019-01-25T10:53:32.565Z,21.70
2019-01-25T10:56:03.186Z,18.27
2019-01-25T10:58:33.798Z,15.87
2019-01-25T11:01:04.485Z,15.10
2019-01-25T11:03:35.095Z,15.87
2019-01-25T11:06:05.991Z,15.23
2019-01-25T11:08:36.528Z,15.37
2019-01-25T11:11:07.081Z,14.77
2019-01-25T11:13:37.577Z,14.50
2019-01-25T11:16:11.968Z,12.60
2019-01-25T11:18:40.585Z,12.50
2019-01-25T11:21:11.366Z,11.70
2019-01-25T11:23:42.011Z,10.53
2019-01-25T11:26:12.739Z,11.80
2019-01-25T11:28:43.238Z,11.77
2019-01-25T11:31:13.746Z,10.90
2019-01-25T11:33:44.229Z,11.80
2019-01-25T11:36:14.822Z,11.63
2019-01-25T11:38:45.399Z,11.67
2019-01-25T11:41:15.912Z,12.60
2019-01-25T11:43:46.550Z,12.47
2019-01-25T11:46:17.015Z,12.57
2019-01-25T11:48:47.534Z,13.23
2019-01-25T11:51:18.005Z,13.13
2019-01-25T11:53:48.511Z,10.50
2019-01-25T11:56:19.009Z,11.27
2019-01-25T11:58:49.538Z,10.97
2019-01-25T12:01:20.041Z,11.83
2019-01-25T12:03:50.556Z,10.87
2019-01-25T12:06:21.018Z,12.40
2019-01-25T12:08:51.640Z,12.80
2019-01-25T12:11:23.133Z,13.77
2019-01-25T12:13:53.614Z,12.53
2019-01-25T12:16:24.146Z,14.20
2019-01-25T12:18:54.618Z,12.77
2019-01-25T12:21:25.153Z,14.00
2019-01-25T12:23:55.734Z,16.63
2019-01-25T12:26:26.258Z,14.00
2019-01-25T12:28:56.769Z,13.57
2019-01-25T12:31:27.302Z,14.57
2019-01-25T12:33:57.774Z,13.93
2019-01-25T12:36:28.294Z,14.60
2019-01-25T12:38:58.756Z,14.20
2019-01-25T12:41:29.234Z,14.93
2019-01-25T12:43:59.752Z,14.73
2019-01-25T12:46:30.273Z,15.27
2019-01-25T12:49:00.785Z,14.83
2019-01-25T12:51:42.296Z,13.37
2019-01-25T12:54:12.803Z,13.30
2019-01-25T12:56:43.293Z,12.47
2019-01-25T12:59:13.897Z,12.37
2019-01-25T13:01:44.477Z,12.60
2019-01-25T13:04:15.079Z,12.30
2019-01-25T13:06:45.538Z,12.40
2019-01-25T13:09:16.175Z,12.40
2019-01-25T13:11:47.479Z,11.30
2019-01-25T13:14:18.069Z,12.60
2019-01-25T13:16:48.537Z,10.97
2019-01-25T13:19:19.054Z,11.53
2019-01-25T13:21:49.633Z,11.83
2019-01-25T13:24:20.145Z,10.70
2019-01-25T13:26:50.649Z,11.17
2019-01-25T13:29:26.010Z,10.87
2019-01-25T13:31:53.429Z,10.23
2019-01-25T13:34:24.042Z,9.63
2019-01-25T13:36:57.234Z,8.53
2019-01-25T13:39:26.897Z,9.50
2019-01-25T13:41:58.545Z,9.73
2019-01-25T13:44:30.353Z,9.27
2019-01-25T13:47:00.965Z,10.07
2019-01-25T13:49:31.672Z,10.00
2019-01-25T13:52:02.129Z,9.43
2019-01-25T13:54:32.649Z,10.03
2019-01-25T13:57:03.186Z,9.53
2019-01-25T13:59:33.656Z,10.70
2019-01-25T14:02:04.362Z,9.23
2019-01-25T14:04:34.977Z,10.80
2019-01-25T14:07:05.685Z,10.30
2019-01-25T14:09:36.209Z,11.10
2019-01-25T14:12:06.721Z,11.83
2019-01-25T14:14:37.185Z,18.10
2019-01-25T14:17:07.922Z,18.30
2019-01-25T14:19:38.404Z,29.43
2019-01-25T14:22:09.057Z,21.87
2019-01-25T14:24:39.526Z,16.90
2019-01-25T14:27:10.008Z,12.80
2019-01-25T14:29:41.860Z,11.80
2019-01-25T14:32:12.337Z,12.40
2019-01-25T14:34:42.864Z,13.60
2019-01-25T14:37:13.428Z,12.53
2019-01-25T14:39:43.959Z,12.87
2019-01-25T14:42:14.423Z,14.07
2019-01-25T14:44:44.886Z,14.83
2019-01-25T14:47:15.503Z,15.73
2019-01-25T14:49:46.053Z,13.97
2019-01-25T14:52:16.517Z,13.57
2019-01-25T14:54:47.086Z,14.73
2019-01-25T14:57:17.644Z,16.00
2019-01-25T14:59:48.311Z,15.40
2019-01-25T15:02:18.822Z,15.10
2019-01-25T15:04:49.328Z,14.97
2019-01-25T15:07:19.905Z,14.87
2019-01-25T15:09:50.391Z,15.43
2019-01-25T15:12:20.910Z,15.97
2019-01-25T15:14:51.439Z,13.63
2019-01-25T15:17:21.957Z,14.60
2019-01-25T15:19:52.417Z,13.63
2019-01-25T15:22:22.966Z,13.70
2019-01-25T15:24:53.459Z,13.60
2019-01-25T15:27:23.991Z,12.30
2019-01-25T15:29:54.519Z,12.23
2019-01-25T15:32:25.133Z,11.83
2019-01-25T15:34:55.701Z,12.03
2019-01-25T15:37:26.219Z,11.23
2019-01-25T15:39:56.697Z,10.03
2019-01-25T15:42:27.202Z,10.33
2019-01-25T15:44:57.671Z,10.60
2019-01-25T15:47:28.174Z,10.60
2019-01-25T15:49:58.645Z,10.37
2019-01-25T15:52:29.163Z,10.57
2019-01-25T15:54:59.642Z,9.47
2019-01-25T15:57:30.159Z,9.07
2019-01-25T16:00:00.621Z,10.40
2019-01-25T16:02:31.236Z,12.20
2019-01-25T16:05:01.706Z,22.03
2019-01-25T16:07:32.220Z,25.00
2019-01-25T16:10:02.723Z,25.23
2019-01-25T16:12:33.264Z,24.17
2019-01-25T16:15:03.820Z,24.27
2019-01-25T16:17:34.272Z,23.90
2019-01-25T16:20:05.547Z,24.07
2019-01-25T16:22:36.051Z,24.43
2019-01-25T16:25:09.007Z,26.10
2019-01-25T16:27:39.462Z,26.27
2019-01-25T16:30:13.121Z,26.10
2019-01-25T16:32:43.577Z,26.47
2019-01-25T16:35:14.423Z,26.67
2019-01-25T16:37:44.979Z,26.37
2019-01-25T16:40:17.236Z,28.13
2019-01-25T16:42:47.815Z,28.17
2019-01-25T16:45:20.926Z,36.83
2019-01-25T16:47:51.371Z,32.13
2019-01-25T16:50:23.822Z,29.67
2019-01-25T16:52:54.011Z,30.93
2019-01-25T16:55:24.467Z,28.87
2019-01-25T16:57:55.022Z,27.93
2019-01-25T17:00:28.011Z,26.47
2019-01-25T17:02:58.591Z,27.10
2019-01-25T17:05:29.261Z,28.43
2019-01-25T17:07:59.870Z,27.80
2019-01-25T17:10:30.538Z,28.00
2019-01-25T17:13:01.032Z,26.30
2019-01-25T17:15:31.525Z,27.20
2019-01-25T17:18:01.981Z,28.13
2019-01-25T17:20:32.705Z,27.27
2019-01-25T17:23:04.806Z,26.57
2019-01-25T17:25:35.785Z,25.97
2019-01-25T17:28:08.190Z,26.70
2019-01-25T17:30:39.751Z,26.43
2019-01-25T17:33:10.256Z,22.67
2019-01-25T17:35:40.713Z,24.03
2019-01-25T17:38:11.356Z,23.40
2019-01-25T17:40:46.761Z,24.73
2019-01-25T17:43:16.694Z,24.50
2019-01-25T17:45:47.297Z,24.97
2019-01-25T17:48:17.802Z,23.20
2019-01-25T17:50:48.289Z,25.07
2019-01-25T17:53:18.791Z,24.67
2019-01-25T17:55:49.276Z,24.27
2019-01-25T17:58:19.729Z,25.60
2019-01-25T18:00:56.922Z,26.53
2019-01-25T18:03:27.405Z,25.67
2019-01-25T18:05:57.980Z,25.50
2019-01-25T18:08:28.488Z,25.27
2019-01-25T18:10:58.951Z,25.20
2019-01-25T18:13:29.444Z,26.03
2019-01-25T18:15:59.943Z,25.47
2019-01-25T18:18:30.395Z,24.57
2019-01-25T18:21:00.854Z,25.30
2019-01-25T18:23:31.352Z,24.63
2019-01-25T18:26:08.709Z,22.37
2019-01-25T18:28:51.358Z,25.50
2019-01-25T18:31:23.301Z,26.03
2019-01-25T18:33:53.802Z,26.67
2019-01-25T18:36:24.267Z,25.80
2019-01-25T18:38:54.776Z,25.90
2019-01-25T18:41:25.342Z,24.20
2019-01-25T18:43:55.839Z,24.03
2019-01-25T18:46:26.297Z,22.97
2019-01-25T18:48:56.797Z,22.70
2019-01-25T18:51:27.287Z,22.17
2019-01-25T18:53:57.785Z,22.63
2019-01-25T18:56:28.501Z,22.27
2019-01-25T18:58:58.953Z,22.23
2019-01-25T19:01:29.412Z,22.23
2019-01-25T19:03:59.969Z,21.90
2019-01-25T19:06:30.461Z,23.43
2019-01-25T19:09:00.929Z,23.20
2019-01-25T19:11:31.459Z,23.57
2019-01-25T19:14:01.912Z,22.97
2019-01-25T19:16:32.408Z,22.93
2019-01-25T19:19:02.860Z,23.73
2019-01-25T19:21:33.369Z,23.07
2019-01-25T19:24:03.975Z,22.50
2019-01-25T19:26:34.524Z,24.20
2019-01-25T19:29:05.221Z,21.77
2019-01-25T19:31:35.684Z,21.87
2019-01-25T19:34:06.398Z,22.53
2019-01-25T19:36:36.957Z,21.67
2019-01-25T19:39:11.504Z,19.43
2019-01-25T19:41:42.219Z,17.80
2019-01-25T19:44:12.806Z,19.50
2019-01-25T19:46:43.608Z,19.03
2019-01-25T19:49:14.073Z,19.43
2019-01-25T19:51:44.589Z,19.87
2019-01-25T19:54:16.256Z,18.30
2019-01-25T19:56:46.701Z,18.40
2019-01-25T19:59:17.183Z,19.13
2019-01-25T20:01:47.641Z,17.37
2019-01-25T20:04:18.337Z,16.70
2019-01-25T20:06:48.848Z,16.67
2019-01-25T20:09:19.302Z,17.53
2019-01-25T20:11:49.949Z,16.80
2019-01-25T20:14:20.413Z,17.23
2019-01-25T20:16:50.904Z,17.80
2019-01-25T20:19:21.354Z,16.53
2019-01-25T20:21:51.844Z,16.93
2019-01-25T20:24:22.335Z,17.57
2019-01-25T20:26:52.893Z,16.90
2019-01-25T20:29:23.384Z,15.93
2019-01-25T20:31:53.988Z,16.47
2019-01-25T20:34:24.497Z,17.17
2019-01-25T20:36:55.063Z,16.67
2019-01-25T20:39:25.575Z,16.77
2019-01-25T20:41:56.147Z,15.50
2019-01-25T20:44:26.656Z,16.47
2019-01-25T20:46:57.115Z,15.77
2019-01-25T20:49:27.635Z,16.40
2019-01-25T20:51:58.193Z,15.53
2019-01-25T20:54:28.642Z,15.47
2019-01-25T20:56:59.101Z,15.23
2019-01-25T20:59:29.681Z,14.53
2019-01-25T21:02:00.134Z,14.13
2019-01-25T21:04:30.645Z,15.17
2019-01-25T21:07:01.105Z,14.60
2019-01-25T21:09:31.557Z,15.17
2019-01-25T21:12:02.070Z,15.07
2019-01-25T21:14:32.573Z,15.80
2019-01-25T21:17:03.055Z,15.17
2019-01-25T21:19:33.577Z,15.07
2019-01-25T21:22:04.232Z,15.07
2019-01-25T21:24:34.741Z,16.03
2019-01-25T21:27:05.188Z,14.80
2019-01-25T21:29:35.719Z,15.80
2019-01-25T21:32:06.351Z,15.50
2019-01-25T21:34:36.800Z,17.20
2019-01-25T21:37:07.406Z,16.63
2019-01-25T21:39:37.876Z,16.07
2019-01-25T21:42:08.356Z,16.63
2019-01-25T21:44:38.829Z,17.10
2019-01-25T21:47:09.433Z,16.47
2019-01-25T21:49:39.888Z,17.00
2019-01-25T21:52:10.372Z,17.03
2019-01-25T21:54:40.815Z,16.67
2019-01-25T21:57:11.328Z,17.23
2019-01-25T21:59:41.896Z,17.00
2019-01-25T22:02:12.468Z,17.57
2019-01-25T22:04:42.953Z,18.13
2019-01-25T22:07:13.575Z,17.70
2019-01-25T22:09:44.049Z,17.63
2019-01-25T22:12:14.669Z,16.30
2019-01-25T22:14:45.292Z,17.47
2019-01-25T22:17:15.813Z,16.73
2019-01-25T22:19:46.334Z,17.07
2019-01-25T22:22:16.848Z,17.93
2019-01-25T22:24:47.328Z,17.20
2019-01-25T22:27:17.861Z,17.20
2019-01-25T22:29:48.477Z,17.83
2019-01-25T22:32:18.960Z,16.73
2019-01-25T22:34:49.591Z,16.27
2019-01-25T22:37:20.116Z,17.63
2019-01-25T22:39:50.608Z,16.53
2019-01-25T22:42:21.174Z,16.23
2019-01-25T22:44:51.623Z,15.53
2019-01-25T22:47:22.120Z,15.67
2019-01-25T22:49:52.583Z,13.83
2019-01-25T22:52:23.089Z,15.27
2019-01-25T22:54:53.585Z,14.27
2019-01-25T22:57:24.040Z,14.37
2019-01-25T22:59:54.487Z,13.07
2019-01-25T23:02:24.992Z,13.97
2019-01-25T23:05:12.426Z,13.50
2019-01-25T23:07:42.952Z,13.87
2019-01-25T23:10:15.908Z,14.07
2019-01-25T23:12:46.369Z,14.47
2019-01-25T23:15:18.400Z,13.73
2019-01-25T23:17:49.106Z,14.23
2019-01-25T23:20:19.661Z,13.73
2019-01-25T23:22:50.119Z,14.03
2019-01-25T23:25:20.712Z,14.17
2019-01-25T23:27:51.198Z,12.87
2019-01-25T23:30:21.855Z,13.27
2019-01-25T23:32:52.362Z,12.83
2019-01-25T23:35:22.823Z,13.30
2019-01-25T23:37:53.294Z,13.70
2019-01-25T23:40:23.821Z,14.33
2019-01-25T23:42:54.383Z,14.70
2019-01-25T23:45:24.950Z,14.03
2019-01-25T23:47:55.456Z,13.30
2019-01-25T23:50:25.956Z,11.93
2019-01-25T23:52:56.412Z,12.53
2019-01-25T23:55:27.019Z,12.33
2019-01-25T23:57:57.482Z,12.27
